Time;durP1;ratioP1;P1;durP2;ratioP2;P2;SDS_P1;SDS_P2;PMS_P1;PMS_P2;Temp;Humidity;BMP_temperature;BMP_pressure;BME280_temperature;BME280_humidity;BME280_pressure;Samples;Min_cycle;Max_cycle;Signal;HPM_P1;HPM_P2
2022/05/17 00:02:13;;;;;;;19.33;13.73;;;;;;;18.01;83.93;99298.34;5015760;28;20174;-86
2022/05/17 00:04:39;;;;;;;18.93;13.70;;;;;;;17.27;84.34;99202.63;5017268;28;20167;-87
2022/05/17 00:07:05;;;;;;;17.27;13.93;;;;;;;16.04;85.91;98990.34;5013118;28;20233;-85
2022/05/17 00:09:31;;;;;;;19.70;14.10;;;;;;;16.65;85.44;99122.41;4994608;28;20198;-86
2022/05/17 00:11:57;;;;;;;15.87;12.90;;;;;;;16.46;86.25;99075.25;5012684;28;20174;-85
2022/05/17 00:14:23;;;;;;;18.83;13.73;;;;;;;18.81;87.04;99482.25;4995319;28;20167;-86
2022/05/17 00:16:49;;;;;;;19.20;13.30;;;;;;;16.03;88.60;99048.19;5016879;28;20169;-87
2022/05/17 00:19:16;;;;;;;14.73;12.47;;;;;;;16.60;88.69;99134.28;5013082;28;20165;-85
2022/05/17 00:21:43;;;;;;;19.83;12.87;;;;;;;16.20;89.61;99079.97;5014196;28;20325;-86
2022/05/17 00:24:09;;;;;;;17.07;13.57;;;;;;;17.13;89.74;99257.84;5019719;28;20274;-86
2022/05/17 00:26:34;;;;;;;17.20;13.70;;;;;;;15.72;93.04;99087.66;5022084;28;20166;-87
2022/05/17 00:29:02;;;;;;;19.97;14.03;;;;;;;16.97;95.48;99311.31;5065698;23;20232;-85
2022/05/17 00:31:27;;;;;;;18.83;14.50;;;;;;;17.69;96.26;99484.84;5057256;28;20220;-86
2022/05/17 00:33:53;;;;;;;21.03;14.50;;;;;;;17.61;95.74;99482.16;5021106;28;20182;-86
2022/05/17 00:36:19;;;;;;;20.23;15.17;;;;;;;16.54;94.07;99283.25;5014430;28;20263;-85
2022/05/17 00:38:45;;;;;;;18.80;15.07;;;;;;;17.59;94.42;99452.25;5032379;28;20177;-85
2022/05/17 00:41:10;;;;;;;17.80;14.47;;;;;;;17.76;94.06;99465.31;5014394;28;20181;-85
2022/05/17 00:46:49;;;;;;;19.30;15.27;;;;;;;16.86;96.99;99437.25;5032165;28;20177;-85
2022/05/17 00:49:26;;;;;;;26.07;16.70;;;;;;;17.39;97.09;99491.97;4916809;29;20701;-85
2022/05/17 00:51:57;;;;;;;20.93;15.90;;;;;;;16.28;95.70;99270.00;4933402;29;20325;-85
2022/05/17 00:54:22;;;;;;;20.27;15.20;;;;;;;15.95;93.88;99192.75;4933125;29;20264;-85
2022/05/17 00:57:10;;;;;;;19.80;15.27;;;;;;;17.90;92.46;99486.91;4917671;29;20222;-85
2022/05/17 00:59:37;;;;;;;20.27;16.10;;;;;;;16.74;93.32;99312.59;4916399;29;20702;-85
2022/05/17 01:02:07;;;;;;;19.40;15.33;;;;;;;17.00;91.75;99331.81;4916969;29;20228;-85
2022/05/17 01:04:32;;;;;;;20.17;15.00;;;;;;;16.32;90.88;99224.91;4916874;29;20737;-86
2022/05/17 01:07:02;;;;;;;21.07;16.30;;;;;;;15.16;91.38;99052.53;4932177;29;20209;-86
2022/05/17 01:09:28;;;;;;;21.27;16.30;;;;;;;16.98;91.19;99361.63;4932519;29;20296;-86
2022/05/17 01:11:54;;;;;;;22.00;16.57;;;;;;;14.03;91.83;98854.84;4933269;29;20668;-86
2022/05/17 01:17:05;;;;;;;21.57;16.93;;;;;;;17.49;94.29;99481.06;4936504;29;20196;-85
2022/05/17 01:19:30;;;;;;;22.07;16.73;;;;;;;17.55;94.14;99470.97;4936073;29;20208;-87
2022/05/17 01:21:56;;;;;;;24.20;16.97;;;;;;;14.82;94.28;99035.69;4936173;29;20658;-86
2022/05/17 01:24:22;;;;;;;20.93;16.83;;;;;;;15.13;94.02;99055.00;4921034;29;20276;-86
2022/05/17 01:26:54;;;;;;;24.23;17.40;;;;;;;17.58;94.94;99471.00;4977444;28;20710;-85
2022/05/17 01:29:20;;;;;;;25.47;18.23;;;;;;;16.02;95.56;99224.34;4996696;28;20265;-87
2022/05/17 01:31:45;;;;;;;21.87;17.80;;;;;;;14.45;95.53;98957.59;5013680;28;20209;-86
2022/05/17 01:34:11;;;;;;;24.27;18.67;;;;;;;15.68;95.88;99157.34;5013560;28;20179;-86
2022/05/17 01:36:41;;;;;;;24.00;18.77;;;;;;;17.62;96.02;99460.84;5024150;28;20212;-85
2022/05/17 01:39:07;;;;;;;24.67;19.00;;;;;;;15.16;97.94;99083.13;5017433;28;20173;-85
2022/05/17 01:41:33;;;;;;;26.03;19.63;;;;;;;14.56;99.21;98996.03;5017340;28;20269;-85
2022/05/17 01:43:59;;;;;;;24.27;19.47;;;;;;;14.63;100.00;99024.25;5018021;28;20248;-87
2022/05/17 01:46:24;;;;;;;29.07;19.87;;;;;;;16.95;100.00;99451.06;5035205;28;20177;-86
2022/05/17 01:48:51;;;;;;;27.07;20.50;;;;;;;13.36;100.00;98901.63;5035176;28;20202;-87
2022/05/17 01:51:17;;;;;;;27.37;20.03;;;;;;;16.77;100.00;99417.50;5019507;28;20213;-87
2022/05/17 01:53:43;;;;;;;26.53;20.67;;;;;;;15.55;100.00;99197.88;5034901;28;20501;-87
2022/05/17 01:56:09;;;;;;;30.03;21.57;;;;;;;14.57;100.00;99033.44;5034330;28;20166;-85
2022/05/17 01:58:36;;;;;;;29.67;21.63;;;;;;;17.16;99.62;99445.50;5031410;28;20182;-86
2022/05/17 02:01:03;;;;;;;30.03;21.57;;;;;;;17.16;98.41;99447.19;5016668;28;20184;-85
2022/05/17 02:03:29;;;;;;;26.90;21.57;;;;;;;14.61;99.79;99089.56;5034412;28;20683;-86
2022/05/17 02:05:54;;;;;;;30.13;21.67;;;;;;;14.33;100.00;99069.41;5034875;28;20208;-85
2022/05/17 02:08:19;;;;;;;26.40;20.83;;;;;;;15.11;100.00;99215.59;5016954;28;20185;-87
2022/05/17 02:10:45;;;;;;;28.50;20.27;;;;;;;13.95;100.00;99019.25;5034865;28;20178;-85
2022/05/17 02:13:11;;;;;;;26.57;20.00;;;;;;;14.86;100.00;99231.16;5016557;28;20178;-86
2022/05/17 02:15:37;;;;;;;25.43;18.93;;;;;;;12.53;100.00;98832.53;5016310;28;20178;-87
2022/05/17 02:18:03;;;;;;;27.70;19.50;;;;;;;12.46;100.00;98850.97;5035842;28;20198;-87
2022/05/17 02:20:29;;;;;;;27.97;20.20;;;;;;;11.77;100.00;98724.75;5034870;28;20205;-87
2022/05/17 02:22:55;;;;;;;28.60;20.27;;;;;;;15.86;100.00;99412.09;5018055;28;20181;-86
2022/05/17 02:25:20;;;;;;;26.30;19.27;;;;;;;12.32;100.00;98793.06;5019371;28;20182;-86
2022/05/17 02:27:46;;;;;;;25.23;18.97;;;;;;;11.57;100.00;98751.16;5035634;28;20599;-85
2022/05/17 02:30:12;;;;;;;27.07;20.30;;;;;;;15.50;100.00;99404.44;5019682;28;20287;-86
2022/05/17 02:32:38;;;;;;;28.20;20.47;;;;;;;14.81;100.00;99282.84;5020693;28;20185;-86
2022/05/17 02:35:05;;;;;;;27.60;20.80;;;;;;;13.71;100.00;99069.50;5036051;28;20170;-85
2022/05/17 02:37:31;;;;;;;31.73;21.57;;;;;;;15.81;100.00;99437.53;5017921;28;20182;-85
2022/05/17 02:39:56;;;;;;;29.80;19.90;;;;;;;14.17;100.00;99129.22;5018086;28;20170;-85
2022/05/17 02:42:22;;;;;;;26.63;20.17;;;;;;;14.20;100.00;99103.00;5036799;28;20711;-86
2022/05/17 02:44:47;;;;;;;29.97;20.53;;;;;;;14.25;100.00;99121.81;5038068;28;20235;-86
2022/05/17 02:47:12;;;;;;;30.80;20.93;;;;;;;13.80;100.00;99110.44;5044064;28;20150;-86
2022/05/17 02:49:40;;;;;;;29.70;21.17;;;;;;;12.96;100.00;98962.41;5059127;28;20213;-86
2022/05/17 02:52:06;;;;;;;32.03;22.03;;;;;;;13.12;100.00;98974.72;5058324;28;20230;-86
2022/05/17 02:54:32;;;;;;;30.10;22.10;;;;;;;15.98;100.00;99466.03;5038035;28;20645;-83
2022/05/17 02:56:57;;;;;;;28.57;21.67;;;;;;;13.63;100.00;99050.63;5021308;28;20253;-85
2022/05/17 02:59:23;;;;;;;30.13;22.90;;;;;;;14.00;100.00;99142.38;5036586;28;20204;-86
2022/05/17 03:01:49;;;;;;;31.53;24.50;;;;;;;11.79;100.00;98778.88;5037775;28;20162;-86
2022/05/17 03:04:14;;;;;;;31.57;22.87;;;;;;;13.16;100.00;99057.00;5016965;28;20166;-85
2022/05/17 03:06:41;;;;;;;34.80;23.77;;;;;;;14.80;100.00;99319.34;5035670;28;20166;-85
2022/05/17 03:09:08;;;;;;;32.90;23.87;;;;;;;12.22;100.00;98867.22;5036646;28;20198;-85
2022/05/17 03:11:34;;;;;;;36.90;25.23;;;;;;;14.19;100.00;99223.50;5019805;28;20181;-85
2022/05/17 03:13:59;;;;;;;32.40;24.13;;;;;;;14.31;100.00;99182.22;5036657;28;20166;-85
2022/05/17 03:16:32;;;;;;;50.27;24.30;;;;;;;16.01;100.00;99452.47;5019308;28;20192;-84
2022/05/17 03:19:01;;;;;;;37.53;23.83;;;;;;;14.93;100.00;99250.00;5036093;28;20154;-85
2022/05/17 03:21:27;;;;;;;35.13;23.70;;;;;;;12.13;100.00;98760.41;5037242;28;20174;-84
2022/05/17 03:23:53;;;;;;;33.70;23.43;;;;;;;15.54;100.00;99342.47;5037517;28;20630;-85
2022/05/17 03:26:19;;;;;;;32.43;22.70;;;;;;;13.43;100.00;98954.34;5036996;28;20192;-85
2022/05/17 03:28:44;;;;;;;31.10;22.70;;;;;;;15.75;100.00;99339.53;5019071;28;20236;-86
2022/05/17 03:31:13;;;;;;;30.03;22.73;;;;;;;16.77;99.29;99483.97;5018746;28;20197;-87
2022/05/17 03:33:38;;;;;;;31.93;22.03;;;;;;;13.71;98.16;98967.75;5036280;28;20170;-86
2022/05/17 03:36:08;;;;;;;30.20;22.50;;;;;;;14.70;97.69;99120.34;5035837;28;20177;-87
2022/05/17 03:38:34;;;;;;;31.57;22.33;;;;;;;14.10;97.28;99004.31;5023779;28;20200;-88
2022/05/17 03:41:00;;;;;;;34.03;22.17;;;;;;;13.76;97.05;98948.38;5042645;28;20170;-85
2022/05/17 03:43:27;;;;;;;39.07;22.17;;;;;;;14.56;96.67;99082.66;5022629;28;20562;-86
2022/05/17 03:45:53;;;;;;;28.97;20.93;;;;;;;13.12;96.21;98842.59;5036103;28;20178;-86
2022/05/17 03:48:19;;;;;;;26.83;20.83;;;;;;;12.65;95.33;98746.53;5023896;28;20196;-86
2022/05/17 03:50:45;;;;;;;31.13;23.77;;;;;;;14.15;95.94;99025.66;5037257;28;20194;-88
2022/05/17 03:53:11;;;;;;;35.63;24.57;;;;;;;12.87;96.01;98805.50;5035510;28;20256;-86
2022/05/17 03:55:37;;;;;;;29.77;20.77;;;;;;;14.33;96.29;99069.41;5035650;28;20202;-87
2022/05/17 03:58:02;;;;;;;25.57;20.00;;;;;;;13.38;95.77;98927.94;5016333;28;20188;-86
2022/05/17 04:00:28;;;;;;;26.80;20.27;;;;;;;15.86;95.77;99315.97;5015380;28;20650;-86
2022/05/17 04:02:53;;;;;;;27.27;20.53;;;;;;;12.70;95.92;98832.16;5014891;28;20658;-86
2022/05/17 04:05:19;;;;;;;27.33;20.67;;;;;;;15.41;95.08;99233.25;5032687;28;20166;-87
2022/05/17 04:07:44;;;;;;;28.17;20.33;;;;;;;12.88;95.16;98877.50;5032266;28;20177;-87
2022/05/17 04:10:12;;;;;;;27.93;20.90;;;;;;;15.17;96.70;99269.28;5032501;28;20194;-86
2022/05/17 04:12:38;;;;;;;28.57;20.33;;;;;;;12.43;95.86;98811.13;5034162;28;20654;-85
2022/05/17 04:15:05;;;;;;;26.77;20.17;;;;;;;14.32;96.32;99112.66;5034017;28;20166;-86
2022/05/17 04:17:31;;;;;;;27.77;19.60;;;;;;;14.38;97.12;99190.06;5014232;28;20178;-86
2022/05/17 04:19:59;;;;;;;28.20;19.93;;;;;;;12.68;96.77;98904.03;5030547;28;20173;-85
2022/05/17 04:22:24;;;;;;;31.67;20.20;;;;;;;13.34;97.25;99032.09;5013953;28;20182;-86
2022/05/17 04:24:53;;;;;;;26.57;19.03;;;;;;;16.75;94.19;99488.19;5032391;28;20162;-85
2022/05/17 04:27:19;;;;;;;32.33;19.37;;;;;;;14.57;93.30;99168.44;5014301;28;20229;-82
2022/05/17 04:29:44;;;;;;;29.00;20.13;;;;;;;14.23;93.92;99112.41;5031896;28;20200;-86
2022/05/17 04:32:10;;;;;;;29.40;19.77;;;;;;;14.66;95.17;99197.56;5014942;28;20605;-85
2022/05/17 04:34:35;;;;;;;27.17;20.00;;;;;;;16.49;94.11;99473.97;5032716;28;20181;-85
2022/05/17 04:37:00;;;;;;;26.97;20.27;;;;;;;14.78;93.17;99134.13;5014070;28;20265;-86
2022/05/17 04:39:26;;;;;;;28.47;20.77;;;;;;;15.14;91.47;99130.66;5032341;28;20196;-86
2022/05/17 04:41:51;;;;;;;27.07;20.20;;;;;;;15.35;89.70;99141.34;5015117;28;20178;-87
2022/05/17 04:44:17;;;;;;;27.00;19.87;;;;;;;15.63;88.27;99141.06;5032246;28;20688;-86
2022/05/17 04:46:43;;;;;;;25.03;19.50;;;;;;;14.73;87.59;98975.19;5030777;28;20229;-88
2022/05/17 04:49:08;;;;;;;29.13;19.67;;;;;;;15.28;86.97;99065.50;5001265;28;20744;-87
2022/05/17 04:51:34;;;;;;;25.53;18.57;;;;;;;16.59;86.23;99276.53;5017163;28;20660;-87
2022/05/17 04:54:00;;;;;;;23.30;17.20;;;;;;;16.71;85.82;99330.44;5017707;28;20192;-86
2022/05/17 04:56:26;;;;;;;23.63;18.23;;;;;;;17.33;86.19;99433.00;5035322;28;20182;-87
2022/05/17 04:58:51;;;;;;;24.77;18.13;;;;;;;16.91;85.89;99335.91;5016926;28;20193;-87
2022/05/17 05:01:17;;;;;;;27.13;18.87;;;;;;;15.87;85.31;99154.31;5034708;28;20700;-87
2022/05/17 05:03:42;;;;;;;21.73;16.90;;;;;;;16.17;82.93;99142.91;5034638;28;20224;-86
2022/05/17 05:06:08;;;;;;;27.27;17.40;;;;;;;17.30;82.12;99297.34;5018334;28;20207;-86
2022/05/17 05:08:33;;;;;;;21.67;16.33;;;;;;;16.36;81.82;99178.16;5058484;28;20170;-87
2022/05/17 05:10:58;;;;;;;23.63;16.60;;;;;;;18.17;82.14;99489.88;5042227;28;20189;-87
2022/05/17 05:13:25;;;;;;;22.73;16.27;;;;;;;16.88;83.13;99264.25;5024761;28;20228;-88
2022/05/17 05:15:51;;;;;;;21.40;16.90;;;;;;;16.30;83.24;99134.63;5017855;28;20193;-88
2022/05/17 05:18:17;;;;;;;19.10;15.70;;;;;;;18.16;82.16;99437.75;5034512;28;20178;-87
2022/05/17 05:20:43;;;;;;;21.00;15.50;;;;;;;16.47;81.82;99180.06;5034606;28;20590;-85
2022/05/17 05:23:09;;;;;;;20.10;15.73;;;;;;;16.89;81.95;99237.88;5035090;28;20186;-87
2022/05/17 05:25:36;;;;;;;23.33;16.10;;;;;;;18.34;80.94;99423.47;5034594;28;20178;-87
2022/05/17 05:28:03;;;;;;;19.97;16.03;;;;;;;18.58;82.33;99491.34;5016027;28;20218;-87
2022/05/17 05:30:29;;;;;;;21.90;15.50;;;;;;;18.26;81.50;99387.50;5037430;28;20669;-88
2022/05/17 05:32:56;;;;;;;19.70;15.20;;;;;;;18.22;79.30;99319.97;5040977;28;20196;-92
2022/05/17 05:35:21;;;;;;;19.23;15.33;;;;;;;18.13;79.81;99335.22;5021729;28;20205;-88
2022/05/17 05:37:49;;;;;;;17.67;14.73;;;;;;;19.45;79.17;99518.06;5038639;28;20178;-86
2022/05/17 05:40:15;;;;;;;17.90;14.63;;;;;;;18.55;77.79;99316.94;5037906;28;20217;-88
2022/05/17 05:42:41;;;;;;;20.27;14.27;;;;;;;19.41;75.00;99369.13;5038426;28;20217;-87
2022/05/17 05:45:08;;;;;;;20.53;14.13;;;;;;;19.38;73.42;99363.94;5019971;28;20197;-88
2022/05/17 05:47:33;;;;;;;16.70;13.40;;;;;;;20.60;70.96;99507.84;5005644;28;20211;-88
2022/05/17 05:49:59;;;;;;;17.27;13.17;;;;;;;17.07;68.70;98880.91;5020532;28;20703;-86
2022/05/17 05:52:25;;;;;;;17.47;13.13;;;;;;;21.17;66.55;99494.41;5018426;28;20192;-87
2022/05/17 05:54:51;;;;;;;15.93;12.47;;;;;;;19.84;67.79;99284.59;5037469;28;20181;-88
2022/05/17 05:57:16;;;;;;;14.30;12.03;;;;;;;20.00;65.74;99289.81;5037480;28;20182;-86
2022/05/17 05:59:42;;;;;;;15.83;12.27;;;;;;;21.25;65.36;99481.53;5018642;28;20650;-86
2022/05/17 06:02:08;;;;;;;14.50;11.73;;;;;;;21.55;62.71;99479.00;5019548;28;20181;-87
2022/05/17 06:04:34;;;;;;;15.70;11.87;;;;;;;21.34;64.90;99491.84;5036582;28;20185;-86
2022/05/17 06:07:00;;;;;;;17.00;12.13;;;;;;;21.28;65.24;99476.38;5036559;28;20649;-86
2022/05/17 06:09:27;;;;;;;14.87;10.97;;;;;;;20.95;62.42;99405.06;5036926;28;20205;-85
2022/05/17 06:11:52;;;;;;;13.73;10.70;;;;;;;21.75;61.69;99486.75;5036894;28;20213;-86
2022/05/17 06:14:20;;;;;;;14.50;10.50;;;;;;;21.33;59.67;99324.44;5041853;28;20599;-88
2022/05/17 06:16:47;;;;;;;14.30;10.73;;;;;;;21.74;57.99;99323.53;5036811;28;20181;-89
2022/05/17 06:19:12;;;;;;;14.00;10.23;;;;;;;21.71;56.73;99274.56;5034785;28;20179;-88
2022/05/17 06:21:38;;;;;;;17.07;11.13;;;;;;;22.43;55.94;99369.72;5031854;28;20193;-88
2022/05/17 06:24:04;;;;;;;13.00;10.57;;;;;;;21.99;57.27;99367.31;5031953;28;20276;-88
2022/05/17 06:26:30;;;;;;;12.67;10.07;;;;;;;21.44;57.90;99349.34;5035663;28;20229;-88
2022/05/17 06:28:56;;;;;;;15.00;10.67;;;;;;;21.63;57.87;99432.63;5051630;28;20213;-88
2022/05/17 06:31:21;;;;;;;13.07;10.10;;;;;;;22.36;57.91;99489.31;5056397;28;20231;-86
2022/05/17 06:33:46;;;;;;;15.73;10.50;;;;;;;21.69;56.86;99350.16;5038680;28;20258;-87
2022/05/17 06:36:12;;;;;;;13.23;10.37;;;;;;;21.38;58.05;99356.19;5055655;28;20666;-86
2022/05/17 06:38:37;;;;;;;12.77;10.20;;;;;;;21.67;57.61;99295.19;5037419;28;20212;-87
2022/05/17 06:41:04;;;;;;;11.97;10.07;;;;;;;22.21;55.69;99319.94;5033519;28;21012;-87
2022/05/17 06:43:30;;;;;;;13.30;10.80;;;;;;;22.62;56.59;99477.16;5032073;28;20186;-87
2022/05/17 06:45:55;;;;;;;12.97;10.33;;;;;;;21.60;56.46;99266.00;5032309;28;20301;-87
2022/05/17 06:48:21;;;;;;;11.60;9.93;;;;;;;22.85;55.54;99460.75;5020802;28;20237;-87
2022/05/17 06:50:46;;;;;;;14.83;10.33;;;;;;;23.37;54.09;99471.72;5033513;28;20592;-86
2022/05/17 06:53:12;;;;;;;14.27;10.67;;;;;;;23.36;51.99;99399.31;5042383;28;20194;-87
2022/05/17 06:55:37;;;;;;;11.80;9.93;;;;;;;22.34;52.18;99236.47;5024169;28;20190;-87
2022/05/17 06:58:03;;;;;;;13.23;9.87;;;;;;;22.89;51.75;99292.06;5031846;28;20627;-87
2022/05/17 07:00:29;;;;;;;13.13;10.10;;;;;;;24.17;49.46;99446.94;5014400;28;20178;-87
2022/05/17 07:02:54;;;;;;;13.80;9.63;;;;;;;23.97;47.71;99341.03;5014186;28;20229;-88
2022/05/17 07:05:20;;;;;;;12.57;9.60;;;;;;;23.68;48.93;99306.84;5014119;28;20665;-87
2022/05/17 07:07:46;;;;;;;15.10;10.57;;;;;;;23.86;48.07;99298.06;5032719;28;20181;-88
2022/05/17 07:13:09;;;;;;;10.47;9.37;;;;;;;23.89;47.02;99288.56;5031651;28;20606;-87
2022/05/17 07:15:37;;;;;;;14.63;9.53;;;;;;;25.22;47.48;99455.13;5014414;28;20189;-87
2022/05/17 07:18:04;;;;;;;15.53;10.17;;;;;;;25.47;47.13;99459.97;5031458;28;20185;-87
2022/05/17 07:20:29;;;;;;;13.17;10.13;;;;;;;25.19;47.45;99413.69;5030919;28;20575;-87
2022/05/17 07:22:55;;;;;;;15.17;9.90;;;;;;;24.67;46.74;99320.31;5013057;28;20186;-88
2022/05/17 07:25:21;;;;;;;12.27;9.30;;;;;;;25.27;45.92;99364.34;5015830;28;20252;-87
2022/05/17 07:27:46;;;;;;;12.73;10.03;;;;;;;23.96;45.35;99166.03;5036042;23;20239;-86
2022/05/17 07:30:12;;;;;;;11.00;9.80;;;;;;;25.74;46.20;99449.16;5019027;28;20186;-88
2022/05/17 07:32:38;;;;;;;15.10;10.53;;;;;;;25.99;45.39;99458.22;5007445;28;20171;-85
2022/05/17 07:35:04;;;;;;;14.13;10.60;;;;;;;25.36;44.87;99334.81;4993938;28;20176;-87
2022/05/17 07:37:29;;;;;;;12.03;10.63;;;;;;;25.93;44.56;99383.09;4993776;28;20183;-85
2022/05/17 07:39:55;;;;;;;13.70;11.73;;;;;;;26.09;44.41;99384.53;4992649;28;20171;-86
2022/05/17 07:42:20;;;;;;;23.63;17.53;;;;;;;23.71;43.60;98955.25;4993620;28;20202;-87
2022/05/17 07:44:46;;;;;;;17.23;13.50;;;;;;;26.99;43.38;99432.94;4977654;28;20547;-88
2022/05/17 07:47:11;;;;;;;17.42;11.18;;;;;;;25.93;43.16;99328.59;4966979;28;20192;-86
2022/05/17 07:49:40;;;;;;;14.82;11.00;;;;;;;25.56;42.83;99210.91;4960988;28;20325;-87
2022/05/17 07:52:06;;;;;;;12.87;10.07;;;;;;;27.04;43.42;99441.47;4955571;28;20219;-86
2022/05/17 07:54:32;;;;;;;11.45;10.25;;;;;;;27.41;42.33;99444.97;4972369;28;20268;-86
2022/05/17 07:56:57;;;;;;;15.38;10.15;;;;;;;26.81;42.83;99407.34;4975678;28;20292;-86
2022/05/17 07:59:23;;;;;;;11.50;10.30;;;;;;;25.93;42.66;99217.03;4977052;28;20185;-86
2022/05/17 08:01:48;;;;;;;11.88;9.70;;;;;;;27.13;41.93;99331.25;4993412;28;20287;-86
2022/05/17 08:04:14;;;;;;;13.70;10.45;;;;;;;27.67;41.76;99433.09;4975737;28;20188;-87
2022/05/17 08:06:39;;;;;;;13.27;10.38;;;;;;;27.66;41.63;99380.19;4992189;28;20182;-85
2022/05/17 08:09:05;;;;;;;11.07;9.90;;;;;;;27.78;40.99;99407.66;4975050;28;20265;-86
2022/05/17 08:11:31;;;;;;;12.00;10.65;;;;;;;27.20;41.30;99344.03;4993219;28;20240;-83
2022/05/17 08:13:58;;;;;;;13.40;10.18;;;;;;;28.00;41.54;99443.50;4994235;28;20189;-90
2022/05/17 08:16:23;;;;;;;13.40;11.00;;;;;;;27.01;41.89;99243.16;4995355;28;20191;-87
2022/05/17 08:18:49;;;;;;;11.93;10.60;;;;;;;27.58;40.79;99293.69;4994058;28;20567;-87
2022/05/17 08:21:14;;;;;;;14.32;10.88;;;;;;;27.41;41.81;99348.75;4974982;28;20189;-86
2022/05/17 08:23:40;;;;;;;20.38;11.23;;;;;;;28.00;41.11;99385.38;4973221;28;20200;-86
2022/05/17 08:28:49;;;;;;;11.32;10.20;;;;;;;28.73;39.97;99405.06;4990642;28;20246;-86
2022/05/17 08:31:14;;;;;;;11.88;10.18;;;;;;;27.60;40.09;99176.59;4975389;28;20194;-87
2022/05/17 08:33:40;;;;;;;13.00;11.00;;;;;;;29.11;39.07;99360.41;4973928;28;20253;-88
2022/05/17 08:36:09;;;;;;;12.82;10.35;;;;;;;29.91;38.22;99429.16;4973144;28;20687;-88
2022/05/17 08:38:42;;;;;;;14.13;10.23;;;;;;;29.26;37.88;99333.00;4973975;28;20189;-88
2022/05/17 08:41:36;;;;;;;15.45;11.15;;;;;;;29.34;38.22;99315.34;4994952;28;20629;-88
2022/05/17 08:44:08;;;;;;;12.95;11.13;;;;;;;28.36;38.23;99126.53;4975373;28;20191;-88
2022/05/17 08:46:55;;;;;;;13.15;10.95;;;;;;;29.96;37.92;99403.72;4992840;28;20197;-87
2022/05/17 08:49:32;;;;;;;10.75;9.75;;;;;;;29.13;38.19;99405.53;4963790;28;20295;-88
2022/05/17 08:52:08;;;;;;;16.50;11.85;;;;;;;29.24;38.20;99366.09;4991628;28;20538;-88
2022/05/17 08:54:56;;;;;;;11.45;10.35;;;;;;;29.50;37.99;99400.00;4991976;28;20669;-88
2022/05/17 08:57:41;;;;;;;11.85;10.27;;;;;;;29.56;37.66;99397.22;4995034;28;20271;-88
2022/05/17 09:00:10;;;;;;;19.25;10.73;;;;;;;28.79;37.96;99264.13;5010549;28;20186;-89
2022/05/17 09:02:44;;;;;;;12.07;10.88;;;;;;;29.28;38.52;99398.16;5012332;28;20175;-89
2022/05/17 09:05:19;;;;;;;13.57;10.30;;;;;;;29.48;37.89;99395.75;4984237;28;20186;-88
2022/05/17 09:08:21;;;;;;;11.00;9.85;;;;;;;28.47;38.74;99400.56;4995802;28;20205;-88
2022/05/17 09:11:08;;;;;;;15.30;10.60;;;;;;;27.71;38.87;99179.75;4975565;28;20207;-88
2022/05/17 09:13:53;;;;;;;11.07;9.65;;;;;;;29.85;37.21;99385.81;4914907;29;20748;-89
2022/05/17 09:16:22;;;;;;;10.50;9.43;;;;;;;29.50;36.63;99305.25;4917315;29;20250;-89
2022/05/17 09:18:48;;;;;;;10.93;9.63;;;;;;;27.60;36.99;99031.81;4935776;29;20204;-87
2022/05/17 09:21:27;;;;;;;10.32;9.27;;;;;;;29.41;37.03;99387.28;4935286;29;20297;-89
2022/05/17 09:23:52;;;;;;;12.00;9.50;;;;;;;27.89;37.50;99179.19;4915587;29;20522;-89
2022/05/17 09:26:19;;;;;;;12.05;10.57;;;;;;;28.07;37.04;99087.59;4916567;29;20587;-88
2022/05/17 09:28:52;;;;;;;13.52;10.20;;;;;;;30.20;35.84;99381.94;4931198;29;20241;-89
2022/05/17 09:31:20;;;;;;;8.73;7.82;;;;;;;29.14;34.14;99261.22;4915179;29;20216;-89
2022/05/17 09:33:48;;;;;;;13.02;8.95;;;;;;;29.47;35.42;99383.63;4914293;29;20194;-92
2022/05/17 09:36:23;;;;;;;12.00;8.85;;;;;;;30.10;35.20;99375.38;4933819;29;20277;-89
2022/05/17 09:38:52;;;;;;;11.75;9.13;;;;;;;29.38;34.49;99272.59;4918693;29;20208;-88
2022/05/17 09:41:25;;;;;;;10.05;8.75;;;;;;;29.56;35.58;99365.88;4918758;29;20288;-90
2022/05/17 09:44:14;;;;;;;10.65;8.65;;;;;;;30.14;34.63;99366.50;4918238;29;20193;-90
2022/05/17 09:46:48;;;;;;;9.30;8.02;;;;;;;28.32;34.71;98997.31;4873422;29;20282;-89
2022/05/17 09:52:33;;;;;;;12.05;8.55;;;;;;;31.10;33.79;99358.50;4912939;29;20342;-89
2022/05/17 09:55:22;;;;;;;9.65;8.35;;;;;;;31.18;33.04;99349.44;4898214;29;20175;-90
2022/05/17 09:58:08;;;;;;;11.95;8.63;;;;;;;29.99;33.32;99197.34;4899565;29;20220;-90
2022/05/17 10:00:42;;;;;;;11.68;8.48;;;;;;;30.74;33.54;99343.31;4885895;29;20183;-91
2022/05/17 10:03:37;;;;;;;13.07;8.25;;;;;;;30.88;32.77;99346.25;4889559;29;20289;-91
2022/05/17 10:06:13;;;;;;;8.20;7.40;;;;;;;30.83;32.66;99303.75;4900290;29;20200;-90
2022/05/17 10:09:09;;;;;;;8.80;7.60;;;;;;;30.94;32.20;99340.81;4885265;29;20189;-90
2022/05/17 10:11:44;;;;;;;8.88;7.60;;;;;;;30.38;33.11;99348.19;4848639;29;20202;-90
2022/05/17 10:14:31;;;;;;;10.23;8.35;;;;;;;29.71;33.41;99226.19;4877971;29;20196;-89
2022/05/17 10:17:09;;;;;;;10.85;7.13;;;;;;;30.45;31.67;99301.78;4861463;29;20296;-89
2022/05/17 10:19:48;;;;;;;9.23;7.15;;;;;;;30.75;32.22;99329.34;4861271;29;20290;-90
2022/05/17 10:22:25;;;;;;;7.75;7.00;;;;;;;29.94;32.99;99220.16;4867018;29;20230;-90
2022/05/17 10:25:08;;;;;;;7.65;5.28;;;;;;;30.39;30.22;99321.16;4881546;29;20304;-91
2022/05/17 10:27:37;;;;;;;6.43;5.68;;;;;;;30.31;30.73;99263.09;4882130;29;20205;-91
2022/05/17 10:30:44;;;;;;;6.80;6.20;;;;;;;30.45;30.20;99314.84;4896328;29;20248;-89
2022/05/17 10:33:31;;;;;;;9.32;5.32;;;;;;;28.66;29.01;98987.47;4872756;29;20209;-89
2022/05/17 10:36:04;;;;;;;26.42;6.55;;;;;;;29.50;28.77;99133.88;4878187;29;20249;-90
2022/05/17 10:38:34;;;;;;;8.10;4.88;;;;;;;27.86;27.85;98919.06;4882250;29;20189;-89
2022/05/17 10:41:09;;;;;;;5.18;4.68;;;;;;;27.76;27.56;98878.66;4881334;29;20581;-90
2022/05/17 10:43:44;;;;;;;6.18;4.60;;;;;;;30.60;26.79;99279.44;4906381;29;20199;-91
2022/05/17 10:46:18;;;;;;;5.50;4.00;;;;;;;30.50;25.85;99286.78;4899838;29;20356;-91
2022/05/17 10:49:12;;;;;;;4.63;4.22;;;;;;;30.33;25.57;99283.94;4980418;28;20235;-89
2022/05/17 10:51:40;;;;;;;5.05;3.40;;;;;;;30.28;23.99;99281.50;4986113;28;20257;-92
2022/05/17 10:54:46;;;;;;;7.38;3.95;;;;;;;30.59;25.03;99275.13;4983097;28;20577;-91
2022/05/17 10:57:48;;;;;;;5.75;4.47;;;;;;;30.73;26.94;99268.44;4995466;28;20240;-90
2022/05/17 11:00:31;;;;;;;8.38;5.43;;;;;;;30.48;28.26;99253.78;4978657;28;20288;-90
2022/05/17 11:03:16;;;;;;;6.47;5.82;;;;;;;30.67;28.66;99262.59;4982408;28;20190;-90
2022/05/17 11:06:00;;;;;;;7.55;5.40;;;;;;;30.57;28.78;99262.13;4957476;28;20285;-90
2022/05/17 11:08:44;;;;;;;8.20;5.43;;;;;;;30.58;29.10;99253.34;4958207;28;20634;-89
2022/05/17 11:11:49;;;;;;;7.90;5.53;;;;;;;30.18;28.28;99245.34;4978253;28;20244;-91
2022/05/17 11:14:26;;;;;;;10.05;5.45;;;;;;;29.98;28.58;99243.47;4973590;28;20209;-90
2022/05/17 11:17:09;;;;;;;6.95;5.15;;;;;;;29.29;28.67;99081.66;4991908;28;20217;-89
2022/05/17 11:20:04;;;;;;;6.68;5.45;;;;;;;29.77;28.14;99058.91;4978675;28;20236;-90
2022/05/17 11:22:32;;;;;;;8.27;5.07;;;;;;;31.67;27.45;99234.84;4984358;28;20172;-91
2022/05/17 11:25:10;;;;;;;7.18;5.20;;;;;;;32.72;25.88;99226.41;4966748;28;20649;-90
2022/05/17 11:27:57;;;;;;;7.05;5.15;;;;;;;33.29;25.73;99227.06;4969392;28;20719;-90
2022/05/17 11:30:53;;;;;;;7.13;5.20;;;;;;;34.08;24.00;99227.22;4969860;28;20210;-91
2022/05/17 11:33:22;;;;;;;5.75;4.90;;;;;;;34.23;24.08;99223.75;4983673;28;20194;-92
2022/05/17 11:35:57;;;;;;;7.32;4.93;;;;;;;32.62;24.18;98897.44;4971290;28;20183;-91
2022/05/17 11:38:31;;;;;;;5.63;5.10;;;;;;;34.86;23.70;99221.06;4967458;28;20187;-91
2022/05/17 11:41:00;;;;;;;7.28;4.70;;;;;;;35.42;23.06;99210.66;4981617;28;20210;-90
2022/05/17 11:43:43;;;;;;;6.55;5.10;;;;;;;35.43;23.09;99222.91;4968008;28;20199;-90
2022/05/17 11:46:30;;;;;;;7.03;5.10;;;;;;;35.78;23.26;99210.22;4969379;28;20206;-91